Springfield, IL (62712)

01:04 AM CST del 24 Gennaio 2017 (GMT -0600)
Oak Hill | | Change Station

Alt. 581 ft 39.74 °N, 89.56 °W | Updated 21 seconds ago

Coperto
Coperto
37.8 °F
Sembra 38 °F
N
1.0
Vento Variabile Vento da Ovest

Oggi
Massima -- | Minima -- °F
--% Possibilità di precip.
Ieri
Massima -- | Minima -- °F
Precip. -- in
Pressione 29.88 in
Visibilità 10.0 miglia
Nuvole Coperto 2300 ft
Raffreddamento del vento 38 °F
Punto di rugiada 35 °F
Umidità 90%
Piovosità 0.00 in
Spessore del manto nevoso Non disponibile.
7:12 AM 5:08 PM
Luna calante, 13% visible
METAR KSPI 240652Z AUTO 29004KT 10SM OVC023 04/02 A2986 RMK AO2 SLP116 T00390017
Pressione 29.88 in
Visibilità 10.0 miglia
Nuvole Coperto 2300 ft
Raffreddamento del vento 38 °F
Punto di rugiada 35 °F
Umidità 90%
Piovosità 0.00 in
Spessore del manto nevoso Non disponibile.
7:12 AM 5:08 PM
Luna calante, 13% visible
METAR KSPI 240652Z AUTO 29004KT 10SM OVC023 04/02 A2986 RMK AO2 SLP116 T00390017

Get Your Daily Forecast Email!

Thanks for signing up!

Be on the lookout for a verification email in your inbox.

You'll start receiving the daily forecast at 8 AM.

×

10-Day Weather Forecast

Almanac

Astronomia

Jan. 24, 2017 Alba Tramonto
Ora attuale
Crepuscolo civile
Crepuscolo nautico
Crepuscolo astronomico
Luna
Estensione della luce visibile
Lunghezza del giorno
Tomorrow will be .
, % of the Moon is Illuminated

Gli estremi di oggi

State Highs State Lows

Community

WunderPhotos

Upload Photos

1,962,540 foto caricate!

WunderBlog® & News

Nearby

Qualità dell'aria

  Qualità dell'aria Indice AQ Inquinante
Not available.

Profondità neve

Stazione Profondità Altitudine

Attività sismica

Città  Distanza Mag. Data & Ora
Minimo Magnitudo Mostrato è 2.5.

Temperature delle acque costiere

Località Temperatura

Stations

Stazioni meteo nelle vicinanze

Ubicazione della stazione Temp. Raffreddamento del vento Punto di rugiada Umidità Vento Precip. Alt. Aggiornato Tipo
                   

Watches & Warnings

There are currently no watches in effect.